• Join FlightAware (Why Join?)
  • Login
  • US Flag 
10:10AM EDT


 

Airport Tracker/Info


-or-


 

Live Flight TrackerFlight Track Log ✈ DAL6057 ✈ 16-Apr-2013 ✈ KCMH - KDTW

Flight Track Log - Related Links

Times and Time Zones

All times are in EDT time to prevent confusion due to time zone crossing. See the DAL6057 flight status page for this flight to view local times or setup timezone preferences in your user account.

Time Position Orientation Groundspeed Altitude Reporting Facility
EDT Latitude Longitude Course Direction KTS MPH feet Rate Location/Type
06:37AM 40.0022 -82.9128 282° West 150 173 1,300  Level Indianapolis Center
06:38AM 40.0114 -82.9703 282° West 176 203 3,800 2,580 Climbing Indianapolis Center
06:38AM 40.0242 -82.9917 308° West 207 238 4,700 2,160 Climbing Indianapolis Center
06:39AM 40.0703 -82.9911 North 237 273 6,000 2,340 Climbing Indianapolis Center
06:39AM 40.0975 -82.9919 359° North 283 326 7,100 2,700 Climbing Indianapolis Center
06:40AM 40.1467 -82.9900 North 271 312 8,800 1,740 Climbing Indianapolis Center
06:41AM 40.2250 -82.9722 10° North 293 337 10,000 1,140 Climbing Indianapolis Center
06:42AM 40.2883 -82.8739 50° Northeast 352 405 11,200 1,800 Climbing Indianapolis Center
06:43AM 40.3758 -82.8186 26° Northeast 346 398 13,700 1,860 Climbing Indianapolis Center
06:44AM 40.4644 -82.7594 27° Northeast 346 398 15,100 600 Climbing Indianapolis Center
06:45AM 40.5650 -82.6933 27° Northeast 398 458 15,000  Descending Indianapolis Center
06:46AM 40.6708 -82.6214 27° Northeast 419 482 15,100 -120 Climbing Indianapolis Center
06:47AM 40.7122 -82.5964 25° Northeast 408 470 14,900 -180 Descending Cleveland Center
06:48AM 40.8178 -82.5256 27° Northeast 422 486 14,900  Level Cleveland Center
06:49AM 40.9231 -82.4544 27° Northeast 422 486 15,000  Climbing Cleveland Center
06:50AM 41.0286 -82.3833 27° Northeast 422 486 15,000  Level Cleveland Center
06:51AM 41.1211 -82.3222 26° Northeast 394 453 15,000  Level Cleveland Center
06:52AM 41.2058 -82.2419 35° Northeast 372 428 15,000  Level Cleveland Center
06:53AM 41.3003 -82.1861 24° Northeast 372 428 15,000  Level Cleveland Center
06:54AM 41.3792 -82.2103 347° North 336 387 15,000  Level Cleveland Center
06:55AM 41.4325 -82.2864 313° West 271 312 15,100 -420 Climbing Cleveland Center
06:56AM 41.4833 -82.3708 309° West 271 312 14,200 -960 Descending Cleveland Center
06:57AM 41.5300 -82.4472 309° West 271 312 13,200 -780 Descending Cleveland Center
06:57AM 41.5644 -82.5092 307° West 272 313 13,000 -240 Descending Cleveland Center
06:58AM 41.5744 -82.5261 308° West 271 312 13,000 120 Level Cleveland Center
06:58AM 41.5969 -82.5600 312° West 264 304 13,100  Climbing Cleveland Center
06:59AM 41.6256 -82.5944 318° Northwest 266 306 13,000  Descending Cleveland Center
06:59AM 41.6583 -82.6203 330° Northwest 279 321 13,100 -300 Climbing Cleveland Center
07:00AM 41.6844 -82.6742 303° West 261 300 12,700 -720 Descending Cleveland Center
07:00AM 41.7047 -82.7053 311° West 281 323 12,400 -720 Descending Cleveland Center
07:01AM 41.7289 -82.7533 304° West 271 312 12,000 -600 Descending Cleveland Center
07:01AM 41.7489 -82.7903 306° West 270 311 11,800 -1,140 Descending Cleveland Center
07:02AM 41.7772 -82.8331 312° West 271 312 10,900 -1,380 Descending Cleveland Center
07:02AM 41.8106 -82.8453 345° North 292 336 10,400 -1,140 Descending Cleveland Center
07:03AM 41.8542 -82.8553 350° North 266 306 9,800 -1,020 Descending Cleveland Center
07:03AM 41.8872 -82.8647 348° North 278 320 9,400 -1,020 Descending Cleveland Center
07:04AM 41.9267 -82.8689 356° North 266 306 8,800 -1,200 Descending Cleveland Center
07:04AM 41.9681 -82.8817 347° North 266 306 8,100 -1,200 Descending Cleveland Center
07:05AM 42.0014 -82.8883 352° North 266 306 7,600 -1,020 Descending Cleveland Center
07:05AM 42.0325 -82.8922 355° North 261 300 7,200 -1,020 Descending Cleveland Center
07:06AM 42.0700 -82.9019 349° North 256 295 6,600 -1,020 Descending Cleveland Center
07:06AM 42.1178 -82.9094 353° North 250 288 6,000 -900 Descending Cleveland Center
07:07AM 42.1406 -82.9103 358° North 256 295 5,700 -900 Descending Cleveland Center
07:07AM 42.1883 -82.9175 354° North 246 283 5,100 -540 Descending Cleveland Center
07:08AM 42.2342 -82.9219 356° North 229 264 5,000 -60 Descending Cleveland Center
07:09AM 42.3069 -82.9275 357° North 217 250 5,000  Level Cleveland Center
07:10AM 42.3675 -82.9325 357° North 214 246 5,000  Level Cleveland Center
07:11AM 42.4214 -82.9375 356° North 217 250 5,100  Climbing Cleveland Center
07:12AM 42.4942 -82.9514 352° North 220 253 5,100 -60 Level Cleveland Center
07:13AM 42.5289 -82.9922 319° Northwest 196 226 5,000  Descending Cleveland Center
07:14AM 42.5461 -83.0519 291° West 157 181 5,100  Climbing Cleveland Center
07:15AM 42.5181 -83.1072 235° Southwest 164 189 5,000 -120 Descending Cleveland Center